createdAt,value
2022-09-07T00:00:52.249Z,16.80
2022-09-07T00:05:55.293Z,14.73
2022-09-07T00:11:00.505Z,13.93
2022-09-07T00:16:08.137Z,16.63
2022-09-07T00:21:12.662Z,14.27
2022-09-07T00:26:18.349Z,14.20
2022-09-07T00:31:24.503Z,12.90
2022-09-07T00:36:27.980Z,13.43
2022-09-07T00:41:31.049Z,13.23
2022-09-07T00:46:36.806Z,14.77
2022-09-07T00:51:44.487Z,14.07
2022-09-07T00:56:52.234Z,14.97
2022-09-07T01:01:57.003Z,14.53
2022-09-07T01:07:00.621Z,13.93
2022-09-07T01:12:04.759Z,15.40
2022-09-07T01:17:18.010Z,13.03
2022-09-07T01:22:42.791Z,12.00
2022-09-07T01:28:13.421Z,11.70
2022-09-07T01:33:44.736Z,10.60
2022-09-07T01:38:52.352Z,11.00
2022-09-07T01:44:03.450Z,11.90
2022-09-07T01:49:12.430Z,13.77
2022-09-07T01:54:22.474Z,12.47
2022-09-07T01:59:31.749Z,12.50
2022-09-07T02:04:39.453Z,13.27
2022-09-07T02:09:48.496Z,13.27
2022-09-07T02:14:55.699Z,14.13
2022-09-07T02:20:05.920Z,13.60
2022-09-07T02:25:12.350Z,12.57
2022-09-07T02:30:17.652Z,12.53
2022-09-07T02:35:20.684Z,13.03
2022-09-07T02:40:23.637Z,13.20
2022-09-07T02:45:34.800Z,11.77
2022-09-07T02:50:51.086Z,11.93
2022-09-07T02:56:06.275Z,13.23
2022-09-07T03:01:18.043Z,11.73
2022-09-07T03:06:27.697Z,13.83
2022-09-07T03:11:31.066Z,13.20
2022-09-07T03:16:35.413Z,14.57
2022-09-07T03:21:38.522Z,13.60
2022-09-07T03:26:42.848Z,14.37
2022-09-07T03:31:47.537Z,13.60
2022-09-07T03:36:50.519Z,14.07
2022-09-07T03:41:53.493Z,16.40
2022-09-07T03:46:57.830Z,15.60
2022-09-07T03:52:00.848Z,14.73
2022-09-07T03:57:03.866Z,14.47
2022-09-07T04:02:08.314Z,16.10
2022-09-07T04:07:11.383Z,13.60
2022-09-07T04:12:14.401Z,12.80
2022-09-07T04:17:18.760Z,12.30
2022-09-07T04:22:21.747Z,14.27
2022-09-07T04:27:24.783Z,12.13
2022-09-07T04:32:29.131Z,12.50
2022-09-07T04:37:32.136Z,13.87
2022-09-07T04:42:35.205Z,12.70
2022-09-07T04:47:39.572Z,13.27
2022-09-07T04:52:42.553Z,13.53
2022-09-07T04:57:45.548Z,14.13
2022-09-07T05:02:49.930Z,12.93
2022-09-07T05:07:52.968Z,13.50
2022-09-07T05:12:55.956Z,14.53
2022-09-07T05:18:00.296Z,18.10
2022-09-07T05:23:03.313Z,20.40
2022-09-07T05:28:06.283Z,21.90
2022-09-07T05:33:10.643Z,25.63
2022-09-07T05:38:13.671Z,18.10
2022-09-07T05:43:16.749Z,17.13
2022-09-07T05:48:21.610Z,16.20
2022-09-07T05:53:24.768Z,16.63
2022-09-07T05:58:28.108Z,16.50
2022-09-07T06:03:32.548Z,17.13
2022-09-07T06:08:37.209Z,16.17
2022-09-07T06:13:40.517Z,17.17
2022-09-07T06:18:46.454Z,17.33
2022-09-07T06:23:50.727Z,15.87
2022-09-07T06:28:57.647Z,17.47
2022-09-07T06:34:02.487Z,17.13
2022-09-07T06:39:05.495Z,18.23
2022-09-07T06:44:08.651Z,17.57
2022-09-07T06:49:13.014Z,16.83
2022-09-07T06:59:39.507Z,17.57
2022-09-07T07:04:43.900Z,16.67
2022-09-07T07:09:46.892Z,16.17
2022-09-07T07:14:49.863Z,18.40
2022-09-07T07:19:54.322Z,19.53
2022-09-07T07:24:57.388Z,18.00
2022-09-07T07:30:00.373Z,18.90
2022-09-07T07:35:05.485Z,18.03
2022-09-07T07:40:14.524Z,20.40
2022-09-07T07:50:42.610Z,19.70
2022-09-07T07:55:45.678Z,22.13
2022-09-07T08:00:56.626Z,21.37
2022-09-07T08:06:08.009Z,16.60
2022-09-07T08:11:12.343Z,18.07
2022-09-07T08:16:15.388Z,15.40
2022-09-07T08:21:19.790Z,15.57
2022-09-07T08:26:22.781Z,14.60
2022-09-07T08:31:25.758Z,16.30
2022-09-07T08:36:31.798Z,14.37
2022-09-07T08:41:57.596Z,14.30
2022-09-07T08:47:06.956Z,14.63
2022-09-07T08:52:17.074Z,14.80
2022-09-07T08:57:27.547Z,14.02
2022-09-07T09:02:35.151Z,13.88
2022-09-07T09:07:49.257Z,13.82
2022-09-07T09:13:05.240Z,13.02
2022-09-07T09:18:25.841Z,12.57
2022-09-07T09:23:35.591Z,13.02
2022-09-07T09:28:40.048Z,13.38
2022-09-07T09:33:43.048Z,13.77
2022-09-07T09:38:47.365Z,13.38
2022-09-07T09:43:55.441Z,11.25
2022-09-07T09:49:00.673Z,12.45
2022-09-07T09:54:08.692Z,11.60
2022-09-07T10:04:45.609Z,11.63
2022-09-07T10:09:53.102Z,10.18
2022-09-07T10:14:57.536Z,11.38
2022-09-07T10:20:03.685Z,9.60
2022-09-07T10:25:32.275Z,11.23
2022-09-07T10:30:47.257Z,9.95
2022-09-07T10:35:54.935Z,11.23
2022-09-07T10:41:04.166Z,10.48
2022-09-07T10:51:57.978Z,10.40
2022-09-07T10:57:13.256Z,11.70
2022-09-07T11:02:22.194Z,12.48
2022-09-07T11:07:41.895Z,12.50
2022-09-07T11:12:47.083Z,11.77
2022-09-07T11:17:53.803Z,11.35
2022-09-07T11:23:07.969Z,12.10
2022-09-07T11:28:18.331Z,11.73
2022-09-07T11:33:26.523Z,12.23
2022-09-07T11:38:35.138Z,11.38
2022-09-07T11:43:44.636Z,10.63
2022-09-07T11:48:51.848Z,10.93
2022-09-07T11:53:58.244Z,9.25
2022-09-07T11:59:24.323Z,9.35
2022-09-07T12:04:54.159Z,9.27
2022-09-07T12:10:32.400Z,9.00
2022-09-07T12:15:49.285Z,10.23
2022-09-07T12:20:52.376Z,9.45
2022-09-07T12:26:33.591Z,9.48
2022-09-07T12:31:57.851Z,10.35
2022-09-07T12:37:03.724Z,10.95
2022-09-07T12:42:38.177Z,11.43
2022-09-07T12:47:43.249Z,10.55
2022-09-07T12:52:49.785Z,12.32
2022-09-07T12:58:00.269Z,12.25
2022-09-07T13:03:52.190Z,12.65
2022-09-07T13:09:05.839Z,13.95
2022-09-07T13:14:21.004Z,14.40
2022-09-07T13:19:57.315Z,17.33
2022-09-07T13:25:03.320Z,12.80
2022-09-07T13:30:24.130Z,13.73
2022-09-07T13:35:28.419Z,8.80
2022-09-07T13:40:35.657Z,5.43
2022-09-07T13:45:49.225Z,4.15
2022-09-07T13:51:00.180Z,5.20
2022-09-07T13:56:19.961Z,4.55
2022-09-07T14:01:25.550Z,4.28
2022-09-07T14:06:33.733Z,4.95
2022-09-07T14:11:43.609Z,3.70
2022-09-07T14:16:49.953Z,4.72
2022-09-07T14:21:58.102Z,3.70
2022-09-07T14:27:03.160Z,4.38
2022-09-07T14:32:15.857Z,4.82
2022-09-07T14:37:21.414Z,5.18
2022-09-07T14:42:25.964Z,5.35
2022-09-07T14:47:30.621Z,5.30
2022-09-07T14:52:42.374Z,7.38
2022-09-07T14:57:48.372Z,8.80
2022-09-07T15:02:51.308Z,7.75
2022-09-07T15:07:56.856Z,6.47
2022-09-07T15:13:02.221Z,6.82
2022-09-07T15:18:09.049Z,8.80
2022-09-07T15:23:13.814Z,9.02
2022-09-07T15:33:49.255Z,13.68
2022-09-07T15:38:59.895Z,15.35
2022-09-07T15:44:05.143Z,15.88
2022-09-07T15:49:08.373Z,16.30
2022-09-07T15:54:13.071Z,17.05
2022-09-07T15:59:17.952Z,18.25
2022-09-07T16:04:23.850Z,18.48
2022-09-07T16:09:27.326Z,20.85
2022-09-07T16:14:35.075Z,18.50
2022-09-07T16:19:40.914Z,18.42
2022-09-07T16:24:44.324Z,17.25
2022-09-07T16:29:49.404Z,13.10
2022-09-07T16:34:52.376Z,13.05
2022-09-07T16:39:56.660Z,12.35
2022-09-07T16:50:23.958Z,15.20
2022-09-07T16:55:27.082Z,12.43
2022-09-07T17:00:33.903Z,12.15
2022-09-07T17:05:40.115Z,11.85
2022-09-07T17:10:43.140Z,11.57
2022-09-07T17:15:47.484Z,11.20
2022-09-07T17:20:56.671Z,10.50
2022-09-07T17:26:06.431Z,10.90
2022-09-07T17:32:23.765Z,10.87
2022-09-07T17:36:35.602Z,11.10
2022-09-07T17:41:38.577Z,12.23
2022-09-07T17:46:43.047Z,12.40
2022-09-07T17:51:46.610Z,11.43
2022-09-07T17:56:49.597Z,12.13
2022-09-07T18:01:54.715Z,12.43
2022-09-07T18:06:57.908Z,12.30
2022-09-07T18:12:00.857Z,12.93
2022-09-07T18:17:06.137Z,14.27
2022-09-07T18:22:09.406Z,12.80
2022-09-07T18:27:12.331Z,12.93
2022-09-07T18:32:17.685Z,14.23
2022-09-07T18:37:20.844Z,14.90
2022-09-07T18:42:23.820Z,14.27
2022-09-07T18:47:29.516Z,13.80
2022-09-07T18:57:55.911Z,12.80
2022-09-07T19:03:00.293Z,12.40
2022-09-07T19:08:03.913Z,12.63
2022-09-07T19:13:06.961Z,12.40
2022-09-07T19:18:11.869Z,13.40
2022-09-07T19:23:14.888Z,11.67
2022-09-07T19:28:19.128Z,11.77
2022-09-07T19:33:23.703Z,12.57
2022-09-07T19:38:26.677Z,13.27
2022-09-07T19:43:33.004Z,13.80
2022-09-07T19:48:38.162Z,14.20
2022-09-07T19:53:43.646Z,14.23
2022-09-07T19:58:48.492Z,13.57
2022-09-07T20:11:03.466Z,12.80
2022-09-07T20:16:08.530Z,11.90
2022-09-07T20:21:13.594Z,13.20
2022-09-07T20:26:20.334Z,11.73
2022-09-07T20:31:23.946Z,11.13
2022-09-07T20:36:26.861Z,10.93
2022-09-07T20:41:34.009Z,12.00
2022-09-07T20:46:37.336Z,11.47
2022-09-07T20:51:41.007Z,11.10
2022-09-07T20:56:45.289Z,10.13
2022-09-07T21:01:48.865Z,11.23
2022-09-07T21:06:51.774Z,10.87
2022-09-07T21:11:57.239Z,10.60
2022-09-07T21:17:00.238Z,10.43
2022-09-07T21:22:03.182Z,10.20
2022-09-07T21:27:07.985Z,12.80
2022-09-07T21:32:10.922Z,12.07
2022-09-07T21:37:15.004Z,12.37
2022-09-07T21:42:19.332Z,12.67
2022-09-07T21:47:22.405Z,11.87
2022-09-07T21:52:25.328Z,11.80
2022-09-07T21:57:29.647Z,12.17
2022-09-07T22:02:32.542Z,10.53
2022-09-07T22:07:35.602Z,10.63
2022-09-07T22:12:39.884Z,10.60
2022-09-07T22:17:46.165Z,12.70
2022-09-07T22:22:49.393Z,12.00
2022-09-07T22:27:54.118Z,11.57
2022-09-07T22:32:57.080Z,12.20
2022-09-07T22:38:00.042Z,12.10
2022-09-07T22:43:04.301Z,11.70
2022-09-07T22:48:07.223Z,11.70
2022-09-07T22:53:10.155Z,12.27
2022-09-07T22:58:14.421Z,12.27
2022-09-07T23:03:17.416Z,11.70
2022-09-07T23:08:20.354Z,11.57
2022-09-07T23:13:24.628Z,11.53
2022-09-07T23:18:27.566Z,11.30
2022-09-07T23:23:44.914Z,10.90
2022-09-07T23:28:52.134Z,11.40
2022-09-07T23:33:55.144Z,12.80
2022-09-07T23:38:59.760Z,13.23
2022-09-07T23:44:04.816Z,13.60
2022-09-07T23:49:07.701Z,13.33
2022-09-07T23:54:10.650Z,13.87
2022-09-07T23:59:14.970Z,13.00
